Time;durP1;ratioP1;P1;durP2;ratioP2;P2;SDS_P1;SDS_P2;PMS_P1;PMS_P2;Temp;Humidity;BMP_temperature;BMP_pressure;BME280_temperature;BME280_humidity;BME280_pressure;Samples;Min_cycle;Max_cycle;Signal;HPM_P1;HPM_P2
2022/08/21 00:01:27;;;;;;;4.03;2.03;;;19.20;99.90;;;;;;5071270;28;20040;-76
2022/08/21 00:03:54;;;;;;;2.38;1.80;;;19.20;99.90;;;;;;5067849;28;20145;-77
2022/08/21 00:06:20;;;;;;;2.05;1.65;;;19.20;99.90;;;;;;5068134;28;20048;-77
2022/08/21 00:08:46;;;;;;;3.80;2.22;;;19.20;99.90;;;;;;5068233;28;20027;-77
2022/08/21 00:11:12;;;;;;;2.25;1.75;;;19.20;99.90;;;;;;5072089;28;20622;-77
2022/08/21 00:13:38;;;;;;;2.10;1.83;;;19.20;99.90;;;;;;5071640;28;20463;-76
2022/08/21 00:16:04;;;;;;;2.35;1.80;;;19.20;99.90;;;;;;5068438;28;20029;-76
2022/08/21 00:18:30;;;;;;;2.47;2.00;;;19.20;99.90;;;;;;5068998;28;20033;-77
2022/08/21 00:20:55;;;;;;;5.53;2.13;;;19.20;99.90;;;;;;5071898;28;20073;-77
2022/08/21 00:23:21;;;;;;;3.80;1.77;;;19.20;99.90;;;;;;5071428;28;20048;-77
2022/08/21 00:25:47;;;;;;;3.72;2.38;;;19.10;99.90;;;;;;5068814;28;20029;-76
2022/08/21 00:28:13;;;;;;;3.38;2.30;;;19.20;99.90;;;;;;5063280;28;20017;-76
2022/08/21 00:30:40;;;;;;;7.22;2.28;;;19.10;99.90;;;;;;5068589;28;20025;-76
2022/08/21 00:33:08;;;;;;;2.63;1.90;;;19.10;99.90;;;;;;5065357;28;20052;-76
2022/08/21 00:35:36;;;;;;;3.85;2.15;;;19.10;99.90;;;;;;5069534;28;20035;-76
2022/08/21 00:38:03;;;;;;;2.00;1.65;;;19.10;99.90;;;;;;5064521;28;20032;-76
2022/08/21 00:40:49;;;;;;;3.10;2.38;;;19.10;99.90;;;;;;5067323;28;20054;-76
2022/08/21 00:43:18;;;;;;;2.78;1.90;;;19.10;99.90;;;;;;5061867;28;20056;-76
2022/08/21 00:45:45;;;;;;;2.08;1.90;;;19.10;99.90;;;;;;5067841;28;20029;-76
2022/08/21 00:48:11;;;;;;;4.15;2.05;;;19.00;99.90;;;;;;5064792;28;20027;-76
2022/08/21 00:50:43;;;;;;;3.33;2.15;;;19.00;99.90;;;;;;5067921;28;20020;-76
2022/08/21 00:53:11;;;;;;;4.13;2.30;;;19.10;99.90;;;;;;5064571;28;20073;-77
2022/08/21 00:55:37;;;;;;;2.97;2.20;;;19.10;99.90;;;;;;5068822;28;20404;-76
2022/08/21 00:58:05;;;;;;;3.80;2.00;;;19.10;99.90;;;;;;5069017;28;20024;-77
2022/08/21 01:00:34;;;;;;;2.35;1.85;;;19.10;99.90;;;;;;5067194;28;20552;-76
2022/08/21 01:03:01;;;;;;;2.70;2.08;;;19.10;99.90;;;;;;5066755;28;20674;-76
2022/08/21 01:05:27;;;;;;;2.38;2.05;;;19.10;99.90;;;;;;5066691;28;20105;-77
2022/08/21 01:07:56;;;;;;;2.83;2.15;;;19.00;99.90;;;;;;5063225;28;20613;-76
2022/08/21 01:10:22;;;;;;;4.63;1.73;;;19.00;99.90;;;;;;5065212;28;20317;-76
2022/08/21 01:12:49;;;;;;;3.13;2.33;;;19.00;99.90;;;;;;5066435;28;20036;-76
2022/08/21 01:15:17;;;;;;;2.53;1.80;;;19.00;99.90;;;;;;5065327;28;20032;-77
2022/08/21 01:17:43;;;;;;;3.13;2.13;;;18.90;99.90;;;;;;5066553;28;20071;-77
2022/08/21 01:20:11;;;;;;;2.72;2.25;;;18.90;99.90;;;;;;5068101;28;20048;-76
2022/08/21 01:22:36;;;;;;;2.05;1.85;;;18.90;99.90;;;;;;5062478;28;20131;-76
2022/08/21 01:25:05;;;;;;;2.83;1.77;;;18.80;99.90;;;;;;5065456;28;20028;-76
2022/08/21 01:27:31;;;;;;;2.00;1.60;;;18.80;99.90;;;;;;5066264;28;20494;-76
2022/08/21 01:30:02;;;;;;;2.50;2.10;;;18.80;99.90;;;;;;5064983;28;20054;-76
2022/08/21 01:32:27;;;;;;;2.38;2.17;;;18.80;99.90;;;;;;5065708;28;20037;-77
2022/08/21 01:34:53;;;;;;;2.35;1.90;;;18.80;99.90;;;;;;5067788;28;20085;-76
2022/08/21 01:37:24;;;;;;;2.63;1.70;;;18.70;99.90;;;;;;5065538;28;20065;-76
2022/08/21 01:39:50;;;;;;;2.58;1.90;;;18.70;99.90;;;;;;5066671;28;20089;-76
2022/08/21 01:42:16;;;;;;;5.05;2.00;;;18.70;99.90;;;;;;5063347;28;20024;-77
2022/08/21 01:44:41;;;;;;;4.07;2.08;;;18.60;99.90;;;;;;5066654;28;20035;-76
2022/08/21 01:47:10;;;;;;;1.83;1.55;;;18.70;99.90;;;;;;5067762;28;20024;-76
2022/08/21 01:49:37;;;;;;;2.58;1.77;;;18.60;99.90;;;;;;5066053;28;20074;-76
2022/08/21 01:52:03;;;;;;;1.60;1.50;;;18.60;99.90;;;;;;5065534;28;20032;-76
2022/08/21 01:54:29;;;;;;;2.35;1.95;;;18.60;99.90;;;;;;5065511;28;20031;-76
2022/08/21 01:56:55;;;;;;;3.22;1.92;;;18.50;99.90;;;;;;5067367;28;20061;-76
2022/08/21 01:59:22;;;;;;;2.40;1.55;;;18.50;99.90;;;;;;5064073;28;20528;-76
2022/08/21 02:01:49;;;;;;;2.78;2.00;;;18.40;99.90;;;;;;5064797;28;20024;-76
2022/08/21 02:04:14;;;;;;;3.40;2.00;;;18.50;99.90;;;;;;5067949;28;20032;-76
2022/08/21 02:06:40;;;;;;;2.00;1.48;;;18.50;99.90;;;;;;5065475;28;20138;-76
2022/08/21 02:09:08;;;;;;;1.77;1.13;;;18.50;99.90;;;;;;5065319;28;20429;-76
2022/08/21 02:11:35;;;;;;;2.28;1.83;;;18.40;99.90;;;;;;5063235;28;20051;-76
2022/08/21 02:14:01;;;;;;;3.90;1.65;;;18.40;99.90;;;;;;5065536;28;20178;-76
2022/08/21 02:16:26;;;;;;;1.50;1.40;;;18.30;99.90;;;;;;5066161;28;20135;-76
2022/08/21 02:18:52;;;;;;;2.40;1.25;;;18.30;99.90;;;;;;5066623;28;20029;-76
2022/08/21 02:21:17;;;;;;;1.90;1.65;;;18.30;99.90;;;;;;5063180;28;20020;-76
2022/08/21 02:23:43;;;;;;;1.90;1.55;;;18.30;99.90;;;;;;5064642;28;20020;-76
2022/08/21 02:26:09;;;;;;;2.15;1.60;;;18.30;99.90;;;;;;5064161;28;20031;-76
2022/08/21 02:28:35;;;;;;;2.30;1.65;;;18.30;99.90;;;;;;5064367;28;20035;-76
2022/08/21 02:31:02;;;;;;;1.73;1.45;;;18.30;99.90;;;;;;5063500;28;20021;-76
2022/08/21 02:33:28;;;;;;;1.67;1.27;;;18.20;99.90;;;;;;5065863;28;20517;-76
2022/08/21 02:35:55;;;;;;;2.15;1.33;;;18.20;99.90;;;;;;5065274;28;20115;-76
2022/08/21 02:38:24;;;;;;;2.42;1.20;;;18.20;99.90;;;;;;5064840;28;20022;-76
2022/08/21 02:40:51;;;;;;;2.08;1.58;;;18.20;99.90;;;;;;5064261;28;20038;-76
2022/08/21 02:43:18;;;;;;;2.22;1.60;;;18.20;99.90;;;;;;5064271;28;20047;-76
2022/08/21 02:45:44;;;;;;;1.42;1.30;;;18.20;99.90;;;;;;5065121;28;20108;-76
2022/08/21 02:48:13;;;;;;;1.35;1.25;;;18.20;99.90;;;;;;5065108;28;20025;-76
2022/08/21 02:50:46;;;;;;;1.73;1.23;;;18.20;99.90;;;;;;5065652;28;20028;-76
2022/08/21 02:53:16;;;;;;;1.63;1.50;;;18.10;99.90;;;;;;5065367;28;20025;-76
2022/08/21 02:55:42;;;;;;;2.28;1.27;;;18.00;99.90;;;;;;5066458;28;20517;-76
2022/08/21 02:58:08;;;;;;;2.00;1.50;;;18.00;99.90;;;;;;5066580;28;20411;-76
2022/08/21 03:00:36;;;;;;;2.25;1.20;;;18.00;99.90;;;;;;5064033;28;20039;-76
2022/08/21 03:03:04;;;;;;;1.75;1.60;;;18.00;99.90;;;;;;5060982;28;20089;-76
2022/08/21 03:05:31;;;;;;;6.53;1.80;;;18.00;99.90;;;;;;5065447;28;20048;-76
2022/08/21 03:07:58;;;;;;;1.98;1.52;;;18.00;99.90;;;;;;5064680;28;20112;-76
2022/08/21 03:10:24;;;;;;;2.40;1.45;;;18.00;99.90;;;;;;5065970;28;20045;-76
2022/08/21 03:12:51;;;;;;;1.30;1.15;;;17.90;99.90;;;;;;5063883;28;20024;-76
2022/08/21 03:15:19;;;;;;;1.67;1.27;;;17.90;99.90;;;;;;5066686;28;20114;-76
2022/08/21 03:17:46;;;;;;;1.30;1.20;;;17.90;99.90;;;;;;5062987;28;20052;-77
2022/08/21 03:20:12;;;;;;;1.50;1.40;;;17.80;99.90;;;;;;5067243;28;20123;-77
2022/08/21 03:22:37;;;;;;;1.55;1.27;;;17.80;99.90;;;;;;5046274;28;20025;-77
2022/08/21 03:25:03;;;;;;;1.23;0.95;;;17.80;99.90;;;;;;5063798;28;20033;-76
2022/08/21 03:27:30;;;;;;;0.95;0.90;;;17.80;99.90;;;;;;5064389;28;20024;-76
2022/08/21 03:29:56;;;;;;;2.53;1.30;;;17.70;99.90;;;;;;5065152;28;20025;-76
2022/08/21 03:32:22;;;;;;;1.38;1.27;;;17.70;99.90;;;;;;5065909;28;20041;-76
2022/08/21 03:34:47;;;;;;;1.58;1.25;;;17.70;99.90;;;;;;5064117;28;20021;-76
2022/08/21 03:37:13;;;;;;;1.80;1.30;;;17.70;99.90;;;;;;5063146;28;20383;-78
2022/08/21 03:39:39;;;;;;;1.30;1.20;;;17.70;99.90;;;;;;5062607;28;20031;-75
2022/08/21 03:42:06;;;;;;;1.40;1.30;;;17.60;99.90;;;;;;5047626;28;20040;-78
2022/08/21 03:44:31;;;;;;;3.05;1.08;;;17.70;99.90;;;;;;5065152;28;20033;-76
2022/08/21 03:46:57;;;;;;;1.83;1.70;;;17.60;99.90;;;;;;5063455;28;20031;-76
2022/08/21 03:49:24;;;;;;;2.63;1.92;;;17.60;99.90;;;;;;5065247;28;20032;-76
2022/08/21 03:51:49;;;;;;;1.20;1.02;;;17.70;99.90;;;;;;5064896;28;20028;-76
2022/08/21 03:54:15;;;;;;;2.22;1.27;;;17.60;99.90;;;;;;5065329;28;20028;-76
2022/08/21 03:56:41;;;;;;;1.40;1.17;;;17.60;99.90;;;;;;5064189;28;20155;-76
2022/08/21 03:59:07;;;;;;;2.30;1.40;;;17.60;99.90;;;;;;5063518;28;20039;-76
2022/08/21 04:01:33;;;;;;;1.45;1.10;;;17.60;99.90;;;;;;5064114;28;20561;-76
2022/08/21 04:03:58;;;;;;;1.63;1.33;;;17.50;99.90;;;;;;5069159;28;20483;-76
2022/08/21 04:06:26;;;;;;;2.00;1.00;;;17.50;99.90;;;;;;5067621;28;20060;-76
2022/08/21 04:08:52;;;;;;;2.05;1.08;;;17.50;99.90;;;;;;5069909;28;20106;-76
2022/08/21 04:11:18;;;;;;;1.27;1.17;;;17.50;99.90;;;;;;5065065;28;20023;-76
2022/08/21 04:13:45;;;;;;;1.50;1.40;;;17.50;99.90;;;;;;5066342;28;20032;-76
2022/08/21 04:16:12;;;;;;;2.00;1.45;;;17.50;99.90;;;;;;5064959;28;20145;-76
2022/08/21 04:18:37;;;;;;;4.47;1.60;;;17.40;99.90;;;;;;5067059;28;20468;-77
2022/08/21 04:21:03;;;;;;;5.15;1.02;;;17.40;99.90;;;;;;5067897;28;20032;-76
2022/08/21 04:23:29;;;;;;;1.17;0.90;;;17.40;99.90;;;;;;5067580;28;20108;-76
2022/08/21 04:25:55;;;;;;;1.08;0.98;;;17.40;99.90;;;;;;5068885;28;20051;-76
2022/08/21 04:28:23;;;;;;;1.00;1.00;;;17.50;99.90;;;;;;5066958;28;20048;-76
2022/08/21 04:30:50;;;;;;;1.33;1.20;;;17.50;99.90;;;;;;5067037;28;20384;-76
2022/08/21 04:33:15;;;;;;;1.88;1.50;;;17.50;99.90;;;;;;5049718;28;20130;-76
2022/08/21 04:35:41;;;;;;;1.17;0.90;;;17.50;99.90;;;;;;5069129;28;20119;-77
2022/08/21 04:38:07;;;;;;;1.73;1.00;;;17.50;99.90;;;;;;5065533;28;20020;-77
2022/08/21 04:40:33;;;;;;;2.33;1.48;;;17.50;99.90;;;;;;5066333;28;20394;-76
2022/08/21 04:43:03;;;;;;;3.05;1.35;;;17.50;99.90;;;;;;5067111;28;20037;-76
2022/08/21 04:45:38;;;;;;;0.88;0.88;;;17.50;99.90;;;;;;5066954;28;20028;-76
2022/08/21 04:48:06;;;;;;;2.28;1.40;;;17.60;99.90;;;;;;5066225;28;20102;-76
2022/08/21 04:50:40;;;;;;;1.33;0.85;;;17.60;99.90;;;;;;5067660;28;20031;-77
2022/08/21 04:53:10;;;;;;;1.10;1.00;;;17.60;99.90;;;;;;5067050;28;20020;-76
2022/08/21 04:55:37;;;;;;;1.33;1.10;;;17.60;99.90;;;;;;5067149;28;20037;-76
2022/08/21 04:58:04;;;;;;;0.98;0.93;;;17.60;99.90;;;;;;5064621;28;20111;-76
2022/08/21 05:00:29;;;;;;;1.42;1.10;;;17.70;99.90;;;;;;5063850;28;20075;-77
2022/08/21 05:02:58;;;;;;;1.75;1.20;;;17.70;99.90;;;;;;5066333;28;20056;-77
2022/08/21 05:05:24;;;;;;;2.20;1.00;;;17.70;99.90;;;;;;5061077;28;20444;-77
2022/08/21 05:07:51;;;;;;;1.58;1.38;;;17.70;99.90;;;;;;5064300;28;20028;-76
2022/08/21 05:10:17;;;;;;;0.82;0.68;;;17.70;99.90;;;;;;5064838;28;20070;-76
2022/08/21 05:12:44;;;;;;;0.85;0.85;;;17.80;99.90;;;;;;5060584;28;20032;-77
2022/08/21 05:15:11;;;;;;;1.95;1.27;;;17.90;99.90;;;;;;5066529;28;20436;-77
2022/08/21 05:17:37;;;;;;;0.90;0.90;;;17.90;99.90;;;;;;5066503;28;20119;-76
2022/08/21 05:20:03;;;;;;;1.02;1.00;;;17.90;99.90;;;;;;5065748;28;20127;-77
2022/08/21 05:22:29;;;;;;;2.47;1.13;;;17.90;99.90;;;;;;5064447;28;20491;-77
2022/08/21 05:24:54;;;;;;;0.80;0.80;;;17.90;99.90;;;;;;5063471;28;20132;-77
2022/08/21 05:27:19;;;;;;;3.13;1.67;;;17.90;99.90;;;;;;5066377;28;20361;-76
2022/08/21 05:29:45;;;;;;;0.80;0.80;;;18.00;99.90;;;;;;5064371;28;20036;-80
2022/08/21 05:32:12;;;;;;;0.82;0.82;;;18.10;99.90;;;;;;5067658;28;20379;-76
2022/08/21 05:34:37;;;;;;;0.80;0.80;;;18.00;99.90;;;;;;5067100;28;20146;-76
2022/08/21 05:37:03;;;;;;;1.65;0.90;;;18.10;99.90;;;;;;5066799;28;20462;-77
2022/08/21 05:39:29;;;;;;;1.45;1.00;;;18.00;99.90;;;;;;5066873;28;20102;-76
2022/08/21 05:41:54;;;;;;;1.60;1.30;;;18.10;99.90;;;;;;5069514;28;20031;-75
2022/08/21 05:44:20;;;;;;;1.63;0.90;;;18.10;99.90;;;;;;5068101;28;20082;-77
2022/08/21 05:46:45;;;;;;;1.17;0.90;;;18.20;99.90;;;;;;5066322;28;20025;-79
2022/08/21 05:49:13;;;;;;;2.78;0.98;;;18.20;99.90;;;;;;5063919;28;20012;-95
2022/08/21 05:51:41;;;;;;;3.13;0.82;;;18.20;99.90;;;;;;5075499;28;20025;-95
2022/08/21 05:54:07;;;;;;;1.15;0.80;;;18.30;99.90;;;;;;5069606;28;20073;-96
2022/08/21 05:56:32;;;;;;;0.98;0.98;;;18.40;99.90;;;;;;5069594;28;20111;-92
2022/08/21 05:58:58;;;;;;;1.05;0.88;;;18.40;99.90;;;;;;5069002;28;20108;-84
2022/08/21 06:01:24;;;;;;;2.80;1.27;;;18.40;99.90;;;;;;5057123;28;20074;-81
2022/08/21 06:03:49;;;;;;;0.75;0.75;;;18.50;99.90;;;;;;5054291;28;20056;-83
2022/08/21 06:06:15;;;;;;;1.20;1.05;;;18.50;99.90;;;;;;5059956;28;20120;-87
2022/08/21 06:08:41;;;;;;;4.43;0.90;;;18.60;99.90;;;;;;5065932;28;20033;-87
2022/08/21 06:11:07;;;;;;;3.25;1.05;;;18.60;99.90;;;;;;5064007;28;20149;-78
2022/08/21 06:13:34;;;;;;;0.98;0.98;;;18.60;99.90;;;;;;5060786;28;20054;-81
2022/08/21 06:16:07;;;;;;;1.20;1.10;;;18.60;99.90;;;;;;5063955;28;20024;-83
2022/08/21 06:18:33;;;;;;;1.92;0.82;;;18.60;99.90;;;;;;5069271;28;20039;-92
2022/08/21 06:20:59;;;;;;;0.63;0.63;;;18.60;99.90;;;;;;5064411;28;20025;-87
2022/08/21 06:23:24;;;;;;;0.57;0.57;;;18.70;99.90;;;;;;5059862;28;20032;-83
2022/08/21 06:25:50;;;;;;;2.45;0.95;;;18.70;99.90;;;;;;5065506;28;20035;-81
2022/08/21 06:28:15;;;;;;;1.25;0.95;;;18.70;99.90;;;;;;5062176;28;20020;-88
2022/08/21 06:30:40;;;;;;;0.82;0.80;;;18.70;99.90;;;;;;5066515;28;20024;-80
2022/08/21 06:33:07;;;;;;;3.60;0.98;;;18.80;99.90;;;;;;5066849;28;20032;-80
2022/08/21 06:35:33;;;;;;;0.77;0.77;;;18.90;99.90;;;;;;5060007;28;20530;-83
2022/08/21 06:37:59;;;;;;;0.75;0.75;;;18.80;99.90;;;;;;5064340;28;20391;-80
2022/08/21 06:40:26;;;;;;;1.77;1.48;;;18.80;99.90;;;;;;5063492;28;20032;-79
2022/08/21 06:42:51;;;;;;;0.98;0.90;;;18.90;99.90;;;;;;5062163;28;20282;-80
2022/08/21 06:45:16;;;;;;;0.88;0.88;;;19.00;99.90;;;;;;5060756;28;20021;-74
2022/08/21 06:47:42;;;;;;;0.70;0.70;;;19.00;99.90;;;;;;5065761;28;20644;-77
2022/08/21 06:50:08;;;;;;;0.93;0.80;;;19.00;99.90;;;;;;5061473;28;20027;-75
2022/08/21 06:52:35;;;;;;;2.15;0.93;;;18.90;99.90;;;;;;5060415;28;20024;-78
2022/08/21 06:55:01;;;;;;;0.93;0.80;;;18.90;99.90;;;;;;5061136;28;20032;-77
2022/08/21 06:57:26;;;;;;;0.93;0.80;;;19.00;99.90;;;;;;5062371;28;20039;-78
2022/08/21 06:59:52;;;;;;;1.23;1.05;;;19.10;99.90;;;;;;5060272;28;20024;-79
2022/08/21 07:02:17;;;;;;;2.10;1.00;;;19.30;99.90;;;;;;5064253;28;20115;-81
2022/08/21 07:04:54;;;;;;;0.73;0.73;;;19.30;99.90;;;;;;5060070;28;20047;-78
2022/08/21 07:07:20;;;;;;;1.92;0.80;;;19.40;99.90;;;;;;5059417;28;20500;-75
2022/08/21 07:10:11;;;;;;;0.80;0.80;;;19.70;99.90;;;;;;5061304;28;20081;-76
2022/08/21 07:12:36;;;;;;;1.42;1.13;;;19.60;99.90;;;;;;5045897;28;20025;-76
2022/08/21 07:15:02;;;;;;;1.85;0.90;;;19.70;99.90;;;;;;5068155;28;20513;-76
2022/08/21 07:17:28;;;;;;;0.75;0.68;;;19.70;99.90;;;;;;5066138;28;20107;-76
2022/08/21 07:19:53;;;;;;;1.13;0.88;;;19.70;99.90;;;;;;5068084;28;20555;-76
2022/08/21 07:22:20;;;;;;;2.45;0.98;;;19.90;99.90;;;;;;5064153;28;20036;-76
2022/08/21 07:24:46;;;;;;;0.85;0.80;;;20.00;99.90;;;;;;5066104;28;20128;-77
2022/08/21 07:27:12;;;;;;;1.25;0.80;;;20.20;99.90;;;;;;5066944;28;20020;-76
2022/08/21 07:29:38;;;;;;;1.65;1.05;;;20.20;99.90;;;;;;5067737;28;20394;-76
2022/08/21 07:32:04;;;;;;;0.80;0.80;;;20.40;99.90;;;;;;5062711;28;20067;-76
2022/08/21 07:34:38;;;;;;;3.05;0.65;;;20.50;99.90;;;;;;5059993;28;20025;-76
2022/08/21 07:37:04;;;;;;;1.67;1.00;;;20.30;99.90;;;;;;5072081;28;20032;-75
2022/08/21 07:39:29;;;;;;;0.82;0.70;;;20.30;99.90;;;;;;5072011;28;20112;-76
2022/08/21 07:41:54;;;;;;;3.25;1.13;;;20.60;99.90;;;;;;5070404;28;20522;-75
2022/08/21 07:44:20;;;;;;;2.83;0.63;;;20.70;99.90;;;;;;5071112;28;20097;-76
2022/08/21 07:46:45;;;;;;;1.00;0.77;;;20.60;99.90;;;;;;5071584;28;20029;-76
2022/08/21 07:49:11;;;;;;;1.05;0.98;;;20.80;99.90;;;;;;5070532;28;20016;-76
2022/08/21 07:51:36;;;;;;;0.90;0.90;;;21.00;99.90;;;;;;5070567;28;20380;-76
2022/08/21 07:54:02;;;;;;;0.82;0.70;;;21.00;99.90;;;;;;5069217;28;20037;-76
2022/08/21 07:56:30;;;;;;;1.13;0.80;;;21.00;99.90;;;;;;5071719;28;20025;-76
2022/08/21 07:58:57;;;;;;;1.25;0.73;;;21.10;99.90;;;;;;5067407;28;20031;-76
2022/08/21 08:01:23;;;;;;;0.93;0.70;;;21.20;99.90;;;;;;5070905;28;20028;-76
2022/08/21 08:03:48;;;;;;;0.57;0.57;;;21.30;99.90;;;;;;5069700;28;20123;-75
2022/08/21 08:06:16;;;;;;;3.15;1.35;;;21.20;99.90;;;;;;5070561;28;20127;-75
2022/08/21 08:08:42;;;;;;;0.70;0.70;;;21.20;99.90;;;;;;5071174;28;20386;-76
2022/08/21 08:11:14;;;;;;;0.50;0.50;;;21.00;99.50;;;;;;5066622;28;20029;-75
2022/08/21 08:13:42;;;;;;;0.73;0.73;;;21.00;98.60;;;;;;5069421;28;20028;-76
2022/08/21 08:16:07;;;;;;;3.00;0.70;;;21.10;99.90;;;;;;5070158;28;20021;-75
2022/08/21 08:18:33;;;;;;;0.80;0.80;;;21.10;99.90;;;;;;5069659;28;20044;-76
2022/08/21 08:20:59;;;;;;;2.17;0.95;;;21.30;99.90;;;;;;5069462;28;20432;-76
2022/08/21 08:23:25;;;;;;;2.90;0.90;;;21.40;99.60;;;;;;5070194;28;20033;-76
2022/08/21 08:25:51;;;;;;;4.43;0.60;;;21.30;97.00;;;;;;5070895;28;20095;-75
2022/08/21 08:28:16;;;;;;;5.97;0.70;;;21.30;98.80;;;;;;5071222;28;20103;-75
2022/08/21 08:30:42;;;;;;;1.48;0.88;;;21.40;99.40;;;;;;5068751;28;20017;-77
2022/08/21 08:33:08;;;;;;;0.75;0.50;;;21.60;98.40;;;;;;5067892;28;20024;-76
2022/08/21 08:35:33;;;;;;;0.60;0.60;;;21.40;96.00;;;;;;5069657;28;20036;-76
2022/08/21 08:37:59;;;;;;;0.45;0.45;;;21.50;97.10;;;;;;5069652;28;20107;-76
2022/08/21 08:40:45;;;;;;;0.63;0.63;;;21.50;95.00;;;;;;5071004;28;20390;-75
2022/08/21 08:43:13;;;;;;;0.63;0.57;;;21.80;95.10;;;;;;5067327;28;20028;-76
2022/08/21 08:45:42;;;;;;;1.13;1.02;;;21.90;94.50;;;;;;5070190;28;20249;-74
2022/08/21 08:48:12;;;;;;;2.53;0.80;;;22.10;95.80;;;;;;5069506;28;20501;-76
2022/08/21 08:50:43;;;;;;;2.77;0.70;;;22.30;93.60;;;;;;5069189;28;20032;-76
2022/08/21 08:53:17;;;;;;;2.20;0.80;;;22.20;93.10;;;;;;5067965;28;20107;-76
2022/08/21 08:55:44;;;;;;;1.38;0.70;;;22.50;93.60;;;;;;5067861;28;20036;-76
2022/08/21 08:58:24;;;;;;;0.43;0.43;;;22.50;92.80;;;;;;5070467;28;20537;-76
2022/08/21 09:00:53;;;;;;;3.10;1.10;;;22.70;94.00;;;;;;5069341;28;20555;-76
2022/08/21 09:03:20;;;;;;;1.88;0.88;;;22.90;91.60;;;;;;5069453;28;20035;-76
2022/08/21 09:05:53;;;;;;;0.80;0.68;;;22.90;91.60;;;;;;5067153;28;20638;-76
2022/08/21 09:08:50;;;;;;;0.80;0.80;;;23.00;90.90;;;;;;5070026;28;20036;-76
2022/08/21 09:11:28;;;;;;;0.70;0.70;;;23.10;90.70;;;;;;5067591;28;20044;-76
2022/08/21 09:14:22;;;;;;;0.70;0.70;;;23.30;90.40;;;;;;5068829;28;20182;-76
2022/08/21 09:17:09;;;;;;;1.83;0.80;;;23.50;89.30;;;;;;5068147;28;20755;-76
2022/08/21 09:19:56;;;;;;;0.77;0.77;;;23.50;87.40;;;;;;5067430;28;20055;-76
2022/08/21 09:22:39;;;;;;;5.10;1.17;;;23.60;86.80;;;;;;5064896;28;20040;-77
2022/08/21 09:25:23;;;;;;;1.65;1.00;;;23.40;82.70;;;;;;5070228;28;20020;-76
2022/08/21 09:27:48;;;;;;;0.65;0.65;;;23.30;83.80;;;;;;5068955;28;20036;-76
2022/08/21 09:30:14;;;;;;;1.80;0.88;;;23.50;84.90;;;;;;5066766;28;20020;-76
2022/08/21 09:32:41;;;;;;;1.58;1.10;;;23.50;86.30;;;;;;5069717;28;20024;-76
2022/08/21 09:35:15;;;;;;;0.98;0.65;;;23.50;83.90;;;;;;5069583;28;20471;-76
2022/08/21 09:38:00;;;;;;;0.73;0.70;;;23.50;83.40;;;;;;5069563;28;20078;-76
2022/08/21 09:40:35;;;;;;;1.15;1.05;;;23.70;84.50;;;;;;5065782;28;20092;-76
2022/08/21 09:43:08;;;;;;;1.65;0.80;;;23.70;82.00;;;;;;5069444;28;20582;-76
2022/08/21 09:45:35;;;;;;;3.05;1.25;;;23.80;84.40;;;;;;5068128;28;20032;-76
2022/08/21 09:48:17;;;;;;;2.72;1.10;;;24.00;83.30;;;;;;5068194;28;20354;-76
2022/08/21 09:50:44;;;;;;;0.88;0.82;;;24.10;78.90;;;;;;5067146;28;20078;-77
2022/08/21 09:53:20;;;;;;;2.00;0.88;;;24.20;79.10;;;;;;5068832;28;20079;-75
2022/08/21 09:58:49;;;;;;;0.88;0.68;;;24.50;78.50;;;;;;5067159;28;20036;-76
2022/08/21 10:01:22;;;;;;;2.60;1.02;;;24.70;76.50;;;;;;5066917;28;20028;-76
2022/08/21 10:03:49;;;;;;;0.60;0.60;;;24.80;77.30;;;;;;5066611;28;20036;-76
2022/08/21 10:06:24;;;;;;;0.90;0.68;;;25.00;76.80;;;;;;5064373;28;20130;-76
2022/08/21 10:08:50;;;;;;;1.15;0.80;;;25.20;75.20;;;;;;5068793;28;20031;-76
2022/08/21 10:11:17;;;;;;;0.85;0.80;;;24.90;74.40;;;;;;5068927;28;20028;-76
2022/08/21 10:13:54;;;;;;;1.13;0.90;;;25.10;74.60;;;;;;5065495;28;20166;-77
2022/08/21 10:16:39;;;;;;;1.10;0.77;;;25.00;73.50;;;;;;5066577;28;20036;-76
2022/08/21 10:19:29;;;;;;;0.90;0.90;;;24.90;71.10;;;;;;5068195;28;20534;-75
2022/08/21 10:22:00;;;;;;;1.15;0.70;;;24.90;71.40;;;;;;5067649;28;20625;-75
2022/08/21 10:24:42;;;;;;;0.80;0.80;;;25.00;72.60;;;;;;5066881;28;20190;-75
2022/08/21 10:27:29;;;;;;;2.10;0.80;;;24.60;70.10;;;;;;5048998;28;20051;-75
2022/08/21 10:30:05;;;;;;;0.75;0.70;;;24.80;71.40;;;;;;5068620;28;20387;-76
2022/08/21 10:33:17;;;;;;;1.27;1.10;;;24.90;71.30;;;;;;5067516;28;20036;-76
2022/08/21 10:35:55;;;;;;;0.70;0.70;;;24.70;69.30;;;;;;5022958;28;20617;-75
2022/08/21 10:38:46;;;;;;;1.33;0.70;;;24.80;70.80;;;;;;5025637;28;20033;-76
2022/08/21 10:41:44;;;;;;;0.57;0.57;;;25.20;69.90;;;;;;5055863;28;20039;-75
2022/08/21 10:44:29;;;;;;;1.13;0.70;;;25.20;66.90;;;;;;5060819;28;20115;-75
2022/08/21 10:47:05;;;;;;;0.40;0.40;;;25.60;68.50;;;;;;5068321;28;20374;-75
2022/08/21 10:49:47;;;;;;;2.03;0.95;;;26.00;68.50;;;;;;5068626;28;20077;-75
2022/08/21 10:52:36;;;;;;;1.15;0.70;;;26.40;69.10;;;;;;5066541;28;20473;-75
2022/08/21 10:55:21;;;;;;;1.08;0.80;;;26.50;65.20;;;;;;5067080;28;20032;-74
2022/08/21 10:57:58;;;;;;;0.75;0.70;;;26.80;66.60;;;;;;5065504;28;20036;-75
2022/08/21 11:00:32;;;;;;;0.55;0.55;;;26.90;61.40;;;;;;5067392;28;20036;-75
2022/08/21 11:03:11;;;;;;;0.98;0.80;;;27.10;63.30;;;;;;5066446;28;20543;-75
2022/08/21 11:06:00;;;;;;;3.38;0.60;;;26.80;58.90;;;;;;5066716;28;20048;-75
2022/08/21 11:08:31;;;;;;;1.55;0.70;;;27.00;62.40;;;;;;5067088;28;20036;-75
2022/08/21 11:11:09;;;;;;;0.75;0.75;;;27.10;58.60;;;;;;5066002;28;20032;-75
2022/08/21 11:13:50;;;;;;;1.38;0.65;;;26.80;60.40;;;;;;5066063;28;20395;-77
2022/08/21 11:16:24;;;;;;;3.08;0.60;;;27.00;57.20;;;;;;5066565;28;20439;-76
2022/08/21 11:18:53;;;;;;;0.60;0.60;;;28.80;55.80;;;;;;5063139;28;20033;-77
2022/08/21 11:21:42;;;;;;;0.40;0.40;;;29.70;49.90;;;;;;5068159;28;20024;-75
2022/08/21 11:24:32;;;;;;;0.55;0.55;;;30.40;51.70;;;;;;5061668;28;20040;-75
2022/08/21 11:27:18;;;;;;;0.50;0.50;;;31.70;51.20;;;;;;5066450;28;20032;-75
2022/08/21 11:29:47;;;;;;;0.82;0.60;;;32.80;48.50;;;;;;5066656;28;20024;-76
2022/08/21 11:32:32;;;;;;;0.85;0.60;;;34.00;44.70;;;;;;5067800;28;20028;-75
2022/08/21 11:35:25;;;;;;;2.05;0.98;;;34.00;42.50;;;;;;5068110;28;20107;-74
2022/08/21 11:38:15;;;;;;;0.60;0.60;;;34.00;43.40;;;;;;5062923;28;20029;-75
2022/08/21 11:41:18;;;;;;;0.88;0.43;;;34.40;42.20;;;;;;5062306;28;20033;-75
2022/08/21 11:44:07;;;;;;;0.40;0.40;;;34.30;42.00;;;;;;5065759;28;20024;-75
2022/08/21 11:46:55;;;;;;;1.02;0.80;;;34.30;40.60;;;;;;5006002;28;20058;-75
2022/08/21 11:49:40;;;;;;;0.70;0.60;;;34.30;39.90;;;;;;5060606;28;20025;-76
2022/08/21 11:52:25;;;;;;;2.20;0.70;;;34.40;41.80;;;;;;5066948;28;20036;-75
2022/08/21 11:54:57;;;;;;;1.63;0.60;;;33.90;41.30;;;;;;5067516;28;20036;-76
2022/08/21 11:57:49;;;;;;;0.95;0.50;;;35.60;40.80;;;;;;5066146;28;20032;-75
2022/08/21 12:00:26;;;;;;;0.60;0.60;;;36.20;39.90;;;;;;5039637;28;20041;-75
2022/08/21 12:02:55;;;;;;;0.47;0.47;;;36.50;38.40;;;;;;5063627;28;20056;-76
2022/08/21 12:05:38;;;;;;;0.52;0.52;;;37.90;36.60;;;;;;5066276;28;20498;-75
2022/08/21 12:08:09;;;;;;;0.60;0.55;;;37.10;33.70;;;;;;5063996;28;20475;-75
2022/08/21 12:10:41;;;;;;;0.80;0.55;;;37.20;33.00;;;;;;5066273;28;20470;-75
2022/08/21 12:13:12;;;;;;;0.50;0.50;;;34.90;35.10;;;;;;5066888;28;20017;-76
2022/08/21 12:15:37;;;;;;;0.40;0.40;;;35.80;36.90;;;;;;5066526;28;20398;-75
2022/08/21 12:18:28;;;;;;;1.05;0.40;;;36.10;34.90;;;;;;5070702;28;20033;-75
2022/08/21 12:21:25;;;;;;;0.50;0.50;;;36.00;35.70;;;;;;5066425;28;20041;-75
2022/08/21 12:24:00;;;;;;;0.73;0.70;;;37.50;35.20;;;;;;5065307;28;20495;-76
2022/08/21 12:26:31;;;;;;;0.80;0.60;;;40.00;33.60;;;;;;5067508;28;20032;-76
2022/08/21 12:29:04;;;;;;;;;;;41.00;30.50;;;;;;5070632;28;20403;-75
2022/08/21 12:31:29;;;;;;;0.32;0.32;;;42.40;30.30;;;;;;5069569;28;20468;-75
2022/08/21 12:33:59;;;;;;;0.55;0.50;;;42.40;29.90;;;;;;5068480;28;20108;-75
2022/08/21 12:36:39;;;;;;;0.28;0.28;;;42.60;29.60;;;;;;5069487;28;20055;-76
2022/08/21 12:39:12;;;;;;;0.50;0.50;;;42.30;27.10;;;;;;5069769;28;20513;-77
2022/08/21 12:41:45;;;;;;;1.73;0.63;;;42.60;27.50;;;;;;5070406;28;20115;-75
2022/08/21 12:44:16;;;;;;;1.65;0.90;;;43.80;29.70;;;;;;5066322;28;20041;-76
2022/08/21 12:46:54;;;;;;;;;;;44.30;26.80;;;;;;5060245;28;20052;-75
2022/08/21 12:49:28;;;;;;;0.65;0.50;;;42.90;27.10;;;;;;5070647;28;20314;-75
2022/08/21 12:52:11;;;;;;;0.50;0.50;;;42.60;26.70;;;;;;5070487;28;20300;-76
2022/08/21 12:54:42;;;;;;;1.02;0.63;;;43.70;26.80;;;;;;5066892;28;20060;-76
2022/08/21 12:57:27;;;;;;;0.93;0.80;;;45.30;27.30;;;;;;5064655;28;20089;-76
2022/08/21 13:00:06;;;;;;;0.80;0.80;;;47.20;25.60;;;;;;5067738;28;20040;-76
2022/08/21 13:02:39;;;;;;;0.80;0.80;;;46.20;25.90;;;;;;5069249;28;20438;-74
2022/08/21 13:05:07;;;;;;;0.60;0.60;;;47.40;25.50;;;;;;5069562;28;20066;-76
2022/08/21 13:07:35;;;;;;;0.60;0.60;;;48.60;25.00;;;;;;5061891;28;20071;-75